createdAt,value
2019-04-30T09:07:20.259Z,1008.11
2019-04-30T09:08:55.172Z,1008.22
2019-04-30T09:09:55.172Z,1008.11
2019-04-30T09:10:55.160Z,1008.15
2019-04-30T09:11:55.921Z,1008.11
2019-04-30T09:12:55.133Z,1008.12
2019-04-30T09:13:55.122Z,1008.07
2019-04-30T09:14:55.111Z,1008.14
2019-04-30T09:15:55.105Z,1008.07
2019-04-30T09:16:55.105Z,1008.06
2019-04-30T09:18:03.123Z,1008.01
2019-04-30T09:18:56.053Z,1008.00
2019-04-30T09:19:55.042Z,1008.01
2019-04-30T09:21:03.520Z,1008.04
2019-04-30T09:21:56.122Z,1008.03
2019-04-30T09:22:55.034Z,1007.99
2019-04-30T09:23:55.033Z,1007.96
2019-04-30T09:24:54.999Z,1007.92
2019-04-30T09:25:55.005Z,1007.87
2019-04-30T09:26:54.973Z,1007.92
2019-04-30T09:27:54.986Z,1007.97
2019-04-30T09:28:54.965Z,1007.94
2019-04-30T09:29:54.957Z,1007.88
2019-04-30T09:30:54.935Z,1007.96
2019-04-30T09:31:54.915Z,1007.97
2019-04-30T09:32:54.925Z,1007.90
2019-04-30T09:33:57.699Z,1007.92
2019-04-30T09:34:54.936Z,1007.89
2019-04-30T09:35:54.889Z,1007.84
2019-04-30T09:36:54.867Z,1007.91
2019-04-30T09:37:59.791Z,1007.85
2019-04-30T09:38:55.845Z,1007.91
2019-04-30T09:40:02.265Z,1007.82
2019-04-30T09:40:54.856Z,1007.75
2019-04-30T09:41:54.815Z,1007.80
2019-04-30T09:42:54.806Z,1007.86
2019-04-30T09:43:54.789Z,1007.80
2019-04-30T09:44:57.171Z,1007.87
2019-04-30T09:45:54.876Z,1007.74
2019-04-30T09:46:54.756Z,1007.72
2019-04-30T09:47:54.748Z,1007.73
2019-04-30T09:48:54.748Z,1007.78
2019-04-30T09:49:54.713Z,1007.75
2019-04-30T09:50:54.879Z,1007.68
2019-04-30T09:51:54.800Z,1007.69
2019-04-30T09:52:54.743Z,1007.74
2019-04-30T09:53:59.168Z,1007.74
2019-04-30T09:54:55.678Z,1007.66
2019-04-30T09:55:54.666Z,1007.69
2019-04-30T09:56:54.647Z,1007.74
2019-04-30T09:57:54.780Z,1007.63
2019-04-30T09:58:54.656Z,1007.62
2019-04-30T09:59:54.607Z,1007.67
2019-04-30T10:00:54.610Z,1007.63
2019-04-30T10:01:54.596Z,1007.62
2019-04-30T10:02:54.657Z,1007.61
2019-04-30T10:03:55.069Z,1007.62
2019-04-30T10:04:55.011Z,1007.64
2019-04-30T10:05:54.569Z,1007.67
2019-04-30T10:06:54.580Z,1007.56
2019-04-30T10:07:54.553Z,1007.55
2019-04-30T10:08:54.549Z,1007.50
2019-04-30T10:09:54.491Z,1007.58
2019-04-30T10:10:54.487Z,1007.62
2019-04-30T10:12:01.484Z,1007.56
2019-04-30T10:12:54.469Z,1007.58
2019-04-30T10:13:54.466Z,1007.55
2019-04-30T10:14:54.507Z,1007.60
2019-04-30T10:15:54.434Z,1007.60
2019-04-30T10:16:54.482Z,1007.64
2019-04-30T10:17:54.414Z,1007.59
2019-04-30T10:18:54.415Z,1007.50
2019-04-30T10:19:54.408Z,1007.45
2019-04-30T10:20:54.399Z,1007.56
2019-04-30T10:21:54.389Z,1007.56
2019-04-30T10:22:54.387Z,1007.49
2019-04-30T10:23:54.369Z,1007.51
2019-04-30T10:24:54.360Z,1007.46
2019-04-30T10:25:54.379Z,1007.40
2019-04-30T10:26:54.329Z,1007.44
2019-04-30T10:27:54.337Z,1007.46
2019-04-30T10:28:54.309Z,1007.52
2019-04-30T10:29:54.288Z,1007.48
2019-04-30T10:30:54.271Z,1007.47
